Guernsey, Wyoming
Current Conditions -  °F | °C
As of 11:55 PM on Saturday 20 Dec 2014 (Local Time) from KGUR Reporting Station
Clear Clear  
Wind Chill: 41°   Ceiling: Unl
Heat Index: 41°   Visibility: 10mi
Dew Point: 31°   Wind: 3mph
Humidity: 68%   Direction: 360°N
Pressure: 29.83"   Gusts: NA
Location:  42.27°N, 104.74°W
Report Text: KGUR 210655Z AUTO 36003KT 10SM CLR 05/M01 A2983 RMK AO2 T00481006
Loading
Personal Weather Stations






























Interactive Weather Map New forecast layout! Learn more

10-Day Weather Forecast

Advertisements
Track Severe Weather on mobile